createdAt,value
2023-02-05T00:02:13.109Z,2.00
2023-02-05T00:04:40.045Z,1.20
2023-02-05T00:07:07.053Z,3.25
2023-02-05T00:09:34.176Z,3.88
2023-02-05T00:12:06.554Z,1.85
2023-02-05T00:14:36.901Z,1.52
2023-02-05T00:17:03.908Z,2.20
2023-02-05T00:19:30.716Z,2.55
2023-02-05T00:21:58.188Z,1.75
2023-02-05T00:24:25.062Z,1.88
2023-02-05T00:26:51.944Z,1.83
2023-02-05T00:29:18.933Z,1.38
2023-02-05T00:31:49.791Z,1.95
2023-02-05T00:34:17.361Z,1.83
2023-02-05T00:36:44.695Z,2.40
2023-02-05T00:39:12.365Z,2.20
2023-02-05T00:41:39.498Z,2.83
2023-02-05T00:44:06.596Z,3.20
2023-02-05T00:46:33.712Z,3.55
2023-02-05T00:49:00.470Z,2.35
2023-02-05T00:51:27.568Z,3.83
2023-02-05T00:53:54.364Z,2.15
2023-02-05T00:56:24.459Z,1.60
2023-02-05T00:58:51.670Z,2.10
2023-02-05T01:01:18.932Z,2.50
2023-02-05T01:03:45.880Z,2.65
2023-02-05T01:06:15.698Z,1.80
2023-02-05T01:08:42.567Z,3.42
2023-02-05T01:11:14.133Z,4.10
2023-02-05T01:16:26.725Z,1.88
2023-02-05T01:18:59.636Z,1.90
2023-02-05T01:21:32.846Z,3.03
2023-02-05T01:24:11.329Z,3.63
2023-02-05T01:26:38.339Z,4.13
2023-02-05T01:29:13.556Z,1.95
2023-02-05T01:31:40.808Z,1.88
2023-02-05T01:34:10.905Z,5.40
2023-02-05T01:36:40.010Z,1.40
2023-02-05T01:39:15.240Z,4.35
2023-02-05T01:41:45.980Z,1.98
2023-02-05T01:44:14.296Z,1.90
2023-02-05T01:46:47.343Z,2.53
2023-02-05T01:49:32.859Z,3.00
2023-02-05T01:52:09.440Z,6.03
2023-02-05T01:54:38.495Z,1.67
2023-02-05T01:57:10.749Z,1.33
2023-02-05T01:59:39.868Z,2.22
2023-02-05T02:02:07.792Z,1.85
2023-02-05T02:04:42.936Z,1.60
2023-02-05T02:07:12.268Z,2.35
2023-02-05T02:09:40.773Z,1.88
2023-02-05T02:12:09.206Z,2.97
2023-02-05T02:14:37.499Z,4.35
2023-02-05T02:17:09.807Z,2.67
2023-02-05T02:19:54.237Z,1.65
2023-02-05T02:22:31.291Z,1.65
2023-02-05T02:25:18.154Z,1.77
2023-02-05T02:27:49.180Z,2.92
2023-02-05T02:31:00.363Z,1.48
2023-02-05T02:34:04.954Z,4.05
2023-02-05T02:36:37.852Z,2.58
2023-02-05T02:39:11.245Z,2.83
2023-02-05T02:41:48.238Z,2.22
2023-02-05T02:44:19.172Z,1.90
2023-02-05T02:47:08.239Z,2.17
2023-02-05T02:49:41.629Z,1.95
2023-02-05T02:52:09.583Z,2.28
2023-02-05T02:54:37.543Z,3.90
2023-02-05T02:57:08.535Z,3.50
2023-02-05T02:59:38.595Z,3.08
2023-02-05T03:02:16.194Z,2.50
2023-02-05T03:04:46.319Z,2.10
2023-02-05T03:07:19.249Z,1.73
2023-02-05T03:10:10.244Z,4.65
2023-02-05T03:12:37.311Z,2.25
2023-02-05T03:15:05.049Z,1.75
2023-02-05T03:17:32.796Z,3.60
2023-02-05T03:20:04.477Z,4.55
2023-02-05T03:22:31.625Z,1.48
2023-02-05T03:24:58.803Z,4.00
2023-02-05T03:27:32.911Z,4.63
2023-02-05T03:30:00.007Z,3.53
2023-02-05T03:32:40.268Z,1.73
2023-02-05T03:35:25.680Z,1.70
2023-02-05T03:38:36.836Z,3.25
2023-02-05T03:42:03.909Z,2.20
2023-02-05T03:44:55.606Z,2.10
2023-02-05T03:47:48.228Z,2.53
2023-02-05T03:50:27.359Z,3.08
2023-02-05T03:53:13.097Z,3.08
2023-02-05T03:55:45.166Z,1.80
2023-02-05T03:58:16.390Z,1.55
2023-02-05T04:00:43.560Z,3.35
2023-02-05T04:03:11.404Z,3.05
2023-02-05T04:05:41.231Z,3.22
2023-02-05T04:08:10.886Z,3.00
2023-02-05T04:10:37.769Z,4.25
2023-02-05T04:13:05.125Z,1.30
2023-02-05T04:15:32.304Z,1.50
2023-02-05T04:18:01.851Z,3.30
2023-02-05T04:20:28.931Z,2.03
2023-02-05T04:22:58.544Z,3.90
2023-02-05T04:25:25.396Z,1.67
2023-02-05T04:27:52.430Z,1.95
2023-02-05T04:30:21.674Z,1.40
2023-02-05T04:32:48.709Z,1.55
2023-02-05T04:35:15.650Z,3.28
2023-02-05T04:37:42.632Z,1.20
2023-02-05T04:40:13.108Z,2.72
2023-02-05T04:42:40.004Z,1.15
2023-02-05T04:45:07.716Z,1.60
2023-02-05T04:47:35.273Z,1.65
2023-02-05T04:50:05.546Z,1.92
2023-02-05T04:52:32.571Z,5.35
2023-02-05T04:54:59.476Z,2.70
2023-02-05T04:57:26.524Z,2.00
2023-02-05T04:59:56.517Z,1.58
2023-02-05T05:02:26.682Z,2.45
2023-02-05T05:04:53.789Z,1.30
2023-02-05T05:07:20.696Z,1.70
2023-02-05T05:09:47.778Z,2.10
2023-02-05T05:12:14.765Z,1.38
2023-02-05T05:14:41.794Z,1.60
2023-02-05T05:17:10.400Z,2.17
2023-02-05T05:19:37.363Z,1.73
2023-02-05T05:22:04.432Z,2.80
2023-02-05T05:24:31.423Z,0.90
2023-02-05T05:27:00.070Z,1.73
2023-02-05T05:29:27.049Z,2.33
2023-02-05T05:31:54.292Z,1.50
2023-02-05T05:34:22.068Z,3.38
2023-02-05T05:36:49.321Z,1.35
2023-02-05T05:39:34.974Z,1.52
2023-02-05T05:42:23.312Z,2.92
2023-02-05T05:44:52.461Z,2.25
2023-02-05T05:47:29.277Z,1.35
2023-02-05T05:49:58.961Z,2.75
2023-02-05T05:52:26.152Z,1.75
2023-02-05T05:54:53.013Z,2.60
2023-02-05T05:57:21.567Z,1.45
2023-02-05T05:59:48.679Z,2.42
2023-02-05T06:02:15.889Z,1.65
2023-02-05T06:04:43.339Z,5.40
2023-02-05T06:07:10.574Z,3.40
2023-02-05T06:09:37.461Z,1.55
2023-02-05T06:12:04.534Z,3.00
2023-02-05T06:14:34.748Z,2.00
2023-02-05T06:17:01.576Z,1.65
2023-02-05T06:19:28.880Z,1.40
2023-02-05T06:21:58.167Z,1.75
2023-02-05T06:24:25.238Z,3.72
2023-02-05T06:26:55.411Z,1.95
2023-02-05T06:29:22.710Z,5.53
2023-02-05T06:31:50.566Z,2.58
2023-02-05T06:34:21.913Z,2.83
2023-02-05T06:36:51.775Z,1.95
2023-02-05T06:39:18.760Z,1.83
2023-02-05T06:41:47.225Z,2.10
2023-02-05T06:44:14.896Z,1.80
2023-02-05T06:46:45.563Z,1.40
2023-02-05T06:49:12.724Z,2.20
2023-02-05T06:51:41.371Z,1.90
2023-02-05T06:54:08.420Z,5.00
2023-02-05T06:56:35.901Z,1.75
2023-02-05T06:59:03.311Z,1.80
2023-02-05T07:01:30.345Z,2.30
2023-02-05T07:04:05.611Z,3.05
2023-02-05T07:06:32.977Z,2.67
2023-02-05T07:09:00.404Z,5.43
2023-02-05T07:11:28.156Z,4.22
2023-02-05T07:13:55.469Z,2.75
2023-02-05T07:16:22.689Z,3.42
2023-02-05T07:18:49.874Z,4.03
2023-02-05T07:21:20.709Z,3.05
2023-02-05T07:23:48.006Z,2.42
2023-02-05T07:26:17.249Z,1.63
2023-02-05T07:28:47.374Z,2.22
2023-02-05T07:31:17.439Z,3.47
2023-02-05T07:33:45.870Z,2.28
2023-02-05T07:36:16.673Z,1.90
2023-02-05T07:38:44.422Z,1.60
2023-02-05T07:41:13.910Z,2.83
2023-02-05T07:43:41.335Z,3.08
2023-02-05T07:46:11.848Z,2.10
2023-02-05T07:48:38.947Z,3.92
2023-02-05T07:51:06.885Z,2.67
2023-02-05T07:53:33.969Z,1.65
2023-02-05T07:56:04.969Z,1.90
2023-02-05T07:58:32.824Z,3.22
2023-02-05T08:01:04.827Z,4.50
2023-02-05T08:03:33.022Z,2.20
2023-02-05T08:06:02.693Z,2.20
2023-02-05T08:08:32.932Z,2.45
2023-02-05T08:11:07.805Z,1.85
2023-02-05T08:13:46.308Z,1.80
2023-02-05T08:16:18.621Z,2.38
2023-02-05T08:18:52.787Z,2.15
2023-02-05T08:21:29.743Z,1.85
2023-02-05T08:23:59.417Z,2.75
2023-02-05T08:26:26.469Z,3.22
2023-02-05T08:28:54.842Z,2.00
2023-02-05T08:31:23.161Z,1.70
2023-02-05T08:33:51.027Z,3.97
2023-02-05T08:36:18.142Z,1.80
2023-02-05T08:38:45.072Z,2.67
2023-02-05T08:41:16.044Z,2.95
2023-02-05T08:43:49.506Z,3.45
2023-02-05T08:46:40.307Z,3.60
2023-02-05T08:49:17.571Z,5.03
2023-02-05T08:51:48.185Z,3.13
2023-02-05T08:54:15.677Z,2.22
2023-02-05T08:56:47.591Z,3.10
2023-02-05T08:59:25.977Z,3.03
2023-02-05T09:01:56.919Z,1.50
2023-02-05T09:04:24.528Z,4.93
2023-02-05T09:06:52.224Z,1.58
2023-02-05T09:09:23.040Z,2.88
2023-02-05T09:11:51.656Z,2.22
2023-02-05T09:14:19.091Z,4.38
2023-02-05T09:16:46.665Z,2.92
2023-02-05T09:19:13.978Z,3.25
2023-02-05T09:21:47.025Z,2.97
2023-02-05T09:24:14.154Z,1.95
2023-02-05T09:26:41.634Z,2.80
2023-02-05T09:29:08.997Z,1.35
2023-02-05T09:34:20.087Z,1.77
2023-02-05T09:36:47.332Z,1.98
2023-02-05T09:39:44.047Z,1.98
2023-02-05T09:42:18.021Z,1.38
2023-02-05T09:45:12.707Z,1.95
2023-02-05T09:47:56.717Z,1.20
2023-02-05T09:50:33.319Z,2.47
2023-02-05T09:53:06.667Z,1.40
2023-02-05T09:55:38.347Z,2.47
2023-02-05T09:58:10.416Z,1.67
2023-02-05T10:00:53.857Z,1.52
2023-02-05T10:03:41.526Z,6.85
2023-02-05T10:06:47.688Z,6.38
2023-02-05T10:09:41.215Z,2.28
2023-02-05T10:12:14.404Z,2.17
2023-02-05T10:15:11.020Z,1.30
2023-02-05T10:17:53.989Z,5.70
2023-02-05T10:20:32.973Z,1.42
2023-02-05T10:23:09.143Z,1.70
2023-02-05T10:25:48.820Z,2.20
2023-02-05T10:28:51.507Z,0.98
2023-02-05T10:31:37.184Z,1.55
2023-02-05T10:34:43.863Z,1.80
2023-02-05T10:37:25.100Z,1.10
2023-02-05T10:40:00.644Z,1.02
2023-02-05T10:42:39.075Z,1.13
2023-02-05T10:45:12.097Z,2.00
2023-02-05T10:47:38.921Z,5.00
2023-02-05T10:50:30.932Z,5.35
2023-02-05T10:52:57.821Z,0.95
2023-02-05T10:55:25.021Z,1.00
2023-02-05T10:57:52.033Z,2.92
2023-02-05T11:00:24.413Z,4.25
2023-02-05T11:02:54.896Z,1.02
2023-02-05T11:05:31.139Z,2.30
2023-02-05T11:07:58.939Z,2.25
2023-02-05T11:10:29.538Z,4.53
2023-02-05T11:13:04.079Z,1.30
2023-02-05T11:15:32.543Z,4.60
2023-02-05T11:18:02.746Z,3.58
2023-02-05T11:20:35.428Z,1.80
2023-02-05T11:23:40.604Z,4.82
2023-02-05T11:26:24.231Z,1.83
2023-02-05T11:28:52.876Z,3.08
2023-02-05T11:31:46.753Z,3.17
2023-02-05T11:34:20.316Z,2.50
2023-02-05T11:36:54.967Z,1.35
2023-02-05T11:39:44.213Z,2.35
2023-02-05T11:42:24.725Z,2.22
2023-02-05T11:45:03.248Z,1.48
2023-02-05T11:47:41.631Z,1.60
2023-02-05T11:50:25.658Z,1.63
2023-02-05T11:52:53.850Z,1.50
2023-02-05T11:55:30.725Z,4.13
2023-02-05T11:58:18.476Z,6.25
2023-02-05T12:00:59.702Z,1.90
2023-02-05T12:03:32.818Z,4.97
2023-02-05T12:06:15.676Z,2.05
2023-02-05T12:08:47.932Z,1.95
2023-02-05T12:12:01.162Z,4.22
2023-02-05T12:14:54.239Z,2.35
2023-02-05T12:18:02.200Z,2.22
2023-02-05T12:20:39.671Z,4.03
2023-02-05T12:23:24.515Z,1.58
2023-02-05T12:26:21.975Z,3.45
2023-02-05T12:28:55.401Z,1.60
2023-02-05T12:31:49.625Z,2.13
2023-02-05T12:34:44.528Z,1.67
2023-02-05T12:37:29.350Z,3.28
2023-02-05T12:40:17.830Z,3.90
2023-02-05T12:42:51.911Z,2.88
2023-02-05T12:45:34.566Z,1.88
2023-02-05T12:48:18.054Z,4.78
2023-02-05T12:51:21.643Z,7.57
2023-02-05T12:54:15.684Z,1.58
2023-02-05T12:57:06.620Z,1.40
2023-02-05T12:59:39.322Z,1.77
2023-02-05T13:02:31.044Z,3.80
2023-02-05T13:12:10.235Z,3.75
2023-02-05T13:15:01.747Z,2.25
2023-02-05T13:17:32.594Z,3.35
2023-02-05T13:20:03.614Z,1.10
2023-02-05T13:22:58.779Z,2.92
2023-02-05T13:25:57.287Z,2.83
2023-02-05T13:28:42.950Z,3.63
2023-02-05T13:31:21.125Z,6.03
2023-02-05T13:33:48.997Z,8.05
2023-02-05T13:36:25.120Z,2.85
2023-02-05T13:39:34.246Z,1.50
2023-02-05T13:42:30.086Z,2.05
2023-02-05T13:45:06.336Z,1.90
2023-02-05T13:48:02.085Z,2.45
2023-02-05T13:51:00.093Z,3.05
2023-02-05T13:53:37.831Z,1.35
2023-02-05T13:56:21.193Z,8.57
2023-02-05T13:58:52.108Z,1.35
2023-02-05T14:01:24.202Z,2.58
2023-02-05T14:04:00.335Z,5.05
2023-02-05T14:06:31.470Z,1.67
2023-02-05T14:09:02.436Z,2.40
2023-02-05T14:11:47.464Z,4.97
2023-02-05T14:14:21.785Z,2.45
2023-02-05T14:16:51.006Z,3.08
2023-02-05T14:19:27.429Z,2.20
2023-02-05T14:21:57.227Z,3.10
2023-02-05T14:24:29.145Z,1.20
2023-02-05T14:27:00.866Z,2.15
2023-02-05T14:29:47.137Z,1.45
2023-02-05T14:32:28.977Z,2.17
2023-02-05T14:35:02.357Z,2.15
2023-02-05T14:37:31.813Z,2.22
2023-02-05T14:39:59.480Z,4.18
2023-02-05T14:42:28.466Z,4.05
2023-02-05T14:44:58.171Z,1.45
2023-02-05T14:47:33.544Z,2.90
2023-02-05T14:50:06.975Z,4.68
2023-02-05T14:52:45.750Z,2.40
2023-02-05T14:55:15.767Z,1.67
2023-02-05T14:57:45.623Z,2.42
2023-02-05T15:00:39.238Z,1.63
2023-02-05T15:03:06.229Z,1.75
2023-02-05T15:05:45.420Z,1.13
2023-02-05T15:08:18.090Z,2.20
2023-02-05T15:11:08.373Z,2.60
2023-02-05T15:13:38.517Z,3.78
2023-02-05T15:16:17.685Z,9.50
2023-02-05T15:18:50.474Z,3.20
2023-02-05T15:21:30.933Z,2.53
2023-02-05T15:24:02.920Z,3.05
2023-02-05T15:26:41.237Z,2.10
2023-02-05T15:29:13.733Z,1.75
2023-02-05T15:31:49.722Z,2.15
2023-02-05T15:34:31.372Z,2.50
2023-02-05T15:37:20.758Z,2.45
2023-02-05T15:39:54.058Z,1.67
2023-02-05T15:42:31.455Z,2.05
2023-02-05T15:44:59.708Z,2.63
2023-02-05T15:47:31.407Z,1.52
2023-02-05T15:50:04.140Z,3.38
2023-02-05T15:52:36.336Z,1.33
2023-02-05T15:55:12.465Z,1.80
2023-02-05T15:57:46.396Z,2.17
2023-02-05T16:00:28.096Z,2.58
2023-02-05T16:03:22.382Z,1.95
2023-02-05T16:05:57.531Z,6.68
2023-02-05T16:08:29.764Z,4.22
2023-02-05T16:14:15.635Z,2.75
2023-02-05T16:16:49.671Z,2.33
2023-02-05T16:22:42.553Z,2.13
2023-02-05T16:28:39.750Z,2.72
2023-02-05T16:31:15.489Z,2.40
2023-02-05T16:34:04.129Z,2.22
2023-02-05T16:36:33.632Z,2.72
2023-02-05T16:39:07.168Z,3.78
2023-02-05T16:41:41.169Z,2.45
2023-02-05T16:44:35.982Z,4.22
2023-02-05T16:47:20.511Z,2.83
2023-02-05T16:49:52.382Z,3.28
2023-02-05T16:52:57.827Z,3.92
2023-02-05T16:55:36.496Z,4.22
2023-02-05T16:58:09.953Z,1.80
2023-02-05T17:00:37.145Z,3.50
2023-02-05T17:03:20.527Z,3.90
2023-02-05T17:05:55.466Z,3.25
2023-02-05T17:08:33.938Z,2.10
2023-02-05T17:11:11.697Z,3.00
2023-02-05T17:13:42.607Z,3.42
2023-02-05T17:16:30.156Z,4.55
2023-02-05T17:18:59.304Z,4.85
2023-02-05T17:21:34.220Z,2.33
2023-02-05T17:24:03.983Z,3.20
2023-02-05T17:26:37.197Z,2.60
2023-02-05T17:29:17.502Z,3.28
2023-02-05T17:31:44.498Z,2.50
2023-02-05T17:34:12.242Z,3.60
2023-02-05T17:36:52.028Z,2.60
2023-02-05T17:39:21.334Z,2.45
2023-02-05T17:42:09.719Z,3.25
2023-02-05T17:44:39.849Z,3.80
2023-02-05T17:47:07.084Z,2.78
2023-02-05T17:49:34.117Z,3.17
2023-02-05T17:52:00.831Z,4.68
2023-02-05T17:54:27.680Z,4.88
2023-02-05T17:56:57.001Z,5.15
2023-02-05T17:59:35.845Z,2.97
2023-02-05T18:02:04.676Z,2.88
2023-02-05T18:04:33.792Z,4.70
2023-02-05T18:07:06.019Z,5.85
2023-02-05T18:09:32.925Z,2.70
2023-02-05T18:12:02.810Z,8.57
2023-02-05T18:14:29.679Z,5.18
2023-02-05T18:17:00.183Z,5.90
2023-02-05T18:19:34.610Z,4.78
2023-02-05T18:22:02.031Z,3.88
2023-02-05T18:24:29.353Z,3.63
2023-02-05T18:26:57.229Z,3.60
2023-02-05T18:29:27.986Z,7.32
2023-02-05T18:31:58.093Z,3.20
2023-02-05T18:34:25.109Z,7.60
2023-02-05T18:36:52.099Z,4.68
2023-02-05T18:39:24.517Z,5.15
2023-02-05T18:41:52.564Z,4.13
2023-02-05T18:44:19.429Z,4.82
2023-02-05T18:46:48.995Z,5.78
2023-02-05T18:49:17.090Z,5.30
2023-02-05T18:51:44.074Z,4.47
2023-02-05T18:54:11.018Z,5.40
2023-02-05T18:56:38.682Z,4.50
2023-02-05T18:59:08.276Z,4.30
2023-02-05T19:01:39.921Z,3.30
2023-02-05T19:04:14.285Z,3.00
2023-02-05T19:06:48.369Z,3.72
2023-02-05T19:09:15.574Z,4.55
2023-02-05T19:11:46.241Z,4.00
2023-02-05T19:14:16.715Z,4.32
2023-02-05T19:16:46.933Z,4.35
2023-02-05T19:19:28.448Z,4.30
2023-02-05T19:22:02.376Z,3.88
2023-02-05T19:24:29.774Z,5.38
2023-02-05T19:26:59.290Z,3.70
2023-02-05T19:29:27.741Z,4.53
2023-02-05T19:31:57.864Z,5.80
2023-02-05T19:34:24.994Z,3.90
2023-02-05T19:36:54.054Z,4.03
2023-02-05T19:39:20.831Z,5.90
2023-02-05T19:41:48.798Z,4.03
2023-02-05T19:44:15.751Z,6.47
2023-02-05T19:46:46.932Z,5.50
2023-02-05T19:49:18.759Z,6.35
2023-02-05T19:51:50.204Z,3.58
2023-02-05T19:54:21.648Z,4.53
2023-02-05T19:56:49.011Z,3.80
2023-02-05T19:59:16.977Z,4.28
2023-02-05T20:01:44.992Z,4.57
2023-02-05T20:04:24.942Z,3.25
2023-02-05T20:06:56.449Z,4.70
2023-02-05T20:09:23.613Z,4.75
2023-02-05T20:11:57.912Z,4.88
2023-02-05T20:14:27.770Z,4.38
2023-02-05T20:16:54.779Z,5.95
2023-02-05T20:19:22.073Z,4.55
2023-02-05T20:21:54.645Z,4.25
2023-02-05T20:24:21.995Z,3.80
2023-02-05T20:26:49.041Z,4.10
2023-02-05T20:29:39.130Z,4.57
2023-02-05T20:32:06.755Z,7.47
2023-02-05T20:34:36.028Z,6.63
2023-02-05T20:37:05.985Z,8.57
2023-02-05T20:39:41.861Z,5.47
2023-02-05T20:42:10.824Z,5.85
2023-02-05T20:44:37.668Z,6.75
2023-02-05T20:47:06.023Z,6.97
2023-02-05T20:49:34.974Z,7.35
2023-02-05T20:52:04.899Z,5.57
2023-02-05T20:54:31.775Z,7.57
2023-02-05T20:57:02.515Z,7.38
2023-02-05T20:59:31.960Z,9.68
2023-02-05T21:01:59.333Z,7.40
2023-02-05T21:04:26.699Z,7.85
2023-02-05T21:06:56.762Z,9.52
2023-02-05T21:09:23.698Z,5.63
2023-02-05T21:11:51.419Z,7.10
2023-02-05T21:14:18.644Z,11.18
2023-02-05T21:16:45.657Z,6.72
2023-02-05T21:19:12.745Z,9.77
2023-02-05T21:21:40.221Z,9.00
2023-02-05T21:24:09.932Z,8.32
2023-02-05T21:26:46.401Z,13.05
2023-02-05T21:29:16.085Z,9.50
2023-02-05T21:31:47.990Z,12.25
2023-02-05T21:34:22.773Z,7.53
2023-02-05T21:36:50.540Z,7.00
2023-02-05T21:39:20.285Z,6.45
2023-02-05T21:41:55.454Z,5.00
2023-02-05T21:44:23.630Z,7.47
2023-02-05T21:46:50.574Z,5.75
2023-02-05T21:49:20.529Z,5.03
2023-02-05T21:51:49.743Z,5.15
2023-02-05T21:54:16.939Z,6.85
2023-02-05T21:56:47.065Z,5.00
2023-02-05T21:59:14.111Z,5.60
2023-02-05T22:01:42.198Z,6.00
2023-02-05T22:04:18.668Z,5.25
2023-02-05T22:06:45.958Z,6.30
2023-02-05T22:09:15.198Z,5.00
2023-02-05T22:11:42.970Z,9.10
2023-02-05T22:14:10.870Z,7.15
2023-02-05T22:16:38.811Z,6.97
2023-02-05T22:19:06.601Z,6.50
2023-02-05T22:21:40.491Z,5.18
2023-02-05T22:24:12.064Z,6.15
2023-02-05T22:26:42.657Z,7.07
2023-02-05T22:29:19.422Z,5.93
2023-02-05T22:31:55.534Z,5.00
2023-02-05T22:34:24.297Z,6.25
2023-02-05T22:36:51.412Z,7.35
2023-02-05T22:39:18.578Z,4.60
2023-02-05T22:41:46.169Z,5.75
2023-02-05T22:44:13.332Z,10.80
2023-02-05T22:46:43.237Z,5.78
2023-02-05T22:49:15.688Z,7.63
2023-02-05T22:51:42.803Z,6.85
2023-02-05T22:54:15.082Z,9.52
2023-02-05T22:56:46.968Z,6.50
2023-02-05T22:59:13.946Z,6.20
2023-02-05T23:01:41.254Z,6.38
2023-02-05T23:04:09.417Z,8.27
2023-02-05T23:06:41.218Z,7.97
2023-02-05T23:09:16.441Z,4.50
2023-02-05T23:11:43.921Z,6.35
2023-02-05T23:14:12.610Z,6.25
2023-02-05T23:16:47.472Z,8.73
2023-02-05T23:19:18.928Z,8.65
2023-02-05T23:21:46.532Z,6.90
2023-02-05T23:24:16.506Z,8.98
2023-02-05T23:26:45.683Z,9.07
2023-02-05T23:29:14.067Z,9.00
2023-02-05T23:31:41.282Z,4.65
2023-02-05T23:34:08.907Z,9.63
2023-02-05T23:36:36.207Z,7.90
2023-02-05T23:39:03.484Z,6.35
2023-02-05T23:41:36.164Z,8.02
2023-02-05T23:44:10.596Z,7.15
2023-02-05T23:46:40.869Z,6.90
2023-02-05T23:49:08.103Z,5.25
2023-02-05T23:51:35.397Z,4.97
2023-02-05T23:54:02.442Z,5.78
2023-02-05T23:56:31.599Z,7.25
2023-02-05T23:59:01.461Z,4.05
